sensor_id;sensor_type;location;lat;lon;timestamp;P1;durP1;ratioP1;P2;durP2;ratioP2
65667;SDS011;52369;52.542;13.232;2022-08-01T00:01:59;7.97;;;5.22;;
65667;SDS011;52369;52.542;13.232;2022-08-01T00:04:28;8.70;;;5.25;;
65667;SDS011;52369;52.542;13.232;2022-08-01T00:06:54;7.53;;;4.80;;
65667;SDS011;52369;52.542;13.232;2022-08-01T00:09:20;6.60;;;4.93;;
65667;SDS011;52369;52.542;13.232;2022-08-01T00:11:46;6.38;;;4.43;;
65667;SDS011;52369;52.542;13.232;2022-08-01T00:14:12;6.57;;;4.68;;
65667;SDS011;52369;52.542;13.232;2022-08-01T00:16:38;7.18;;;4.50;;
65667;SDS011;52369;52.542;13.232;2022-08-01T00:19:04;7.30;;;4.70;;
65667;SDS011;52369;52.542;13.232;2022-08-01T00:21:30;7.32;;;4.50;;
65667;SDS011;52369;52.542;13.232;2022-08-01T00:23:56;7.32;;;5.30;;
65667;SDS011;52369;52.542;13.232;2022-08-01T00:26:22;8.07;;;5.05;;
65667;SDS011;52369;52.542;13.232;2022-08-01T00:28:48;5.68;;;4.68;;
65667;SDS011;52369;52.542;13.232;2022-08-01T00:31:14;7.63;;;5.10;;
65667;SDS011;52369;52.542;13.232;2022-08-01T00:33:40;6.57;;;4.82;;
65667;SDS011;52369;52.542;13.232;2022-08-01T00:36:06;7.07;;;4.82;;
65667;SDS011;52369;52.542;13.232;2022-08-01T00:38:32;6.85;;;5.00;;
65667;SDS011;52369;52.542;13.232;2022-08-01T00:40:58;5.63;;;4.32;;
65667;SDS011;52369;52.542;13.232;2022-08-01T00:43:24;6.38;;;4.97;;
65667;SDS011;52369;52.542;13.232;2022-08-01T00:45:50;8.30;;;5.43;;
65667;SDS011;52369;52.542;13.232;2022-08-01T00:48:16;6.72;;;5.10;;
65667;SDS011;52369;52.542;13.232;2022-08-01T00:50:42;7.88;;;5.60;;
65667;SDS011;52369;52.542;13.232;2022-08-01T00:53:09;7.78;;;5.22;;
65667;SDS011;52369;52.542;13.232;2022-08-01T00:55:35;7.85;;;4.95;;
65667;SDS011;52369;52.542;13.232;2022-08-01T00:58:01;6.75;;;5.25;;
65667;SDS011;52369;52.542;13.232;2022-08-01T01:00:28;6.80;;;5.30;;
65667;SDS011;52369;52.542;13.232;2022-08-01T01:02:54;7.95;;;5.40;;
65667;SDS011;52369;52.542;13.232;2022-08-01T01:05:20;6.82;;;5.28;;
65667;SDS011;52369;52.542;13.232;2022-08-01T01:10:38;7.00;;;5.30;;
65667;SDS011;52369;52.542;13.232;2022-08-01T01:15:49;6.72;;;5.25;;
65667;SDS011;52369;52.542;13.232;2022-08-01T01:21:11;8.18;;;5.47;;
65667;SDS011;52369;52.542;13.232;2022-08-01T01:23:50;8.50;;;5.55;;
65667;SDS011;52369;52.542;13.232;2022-08-01T01:31:31;7.55;;;5.53;;
65667;SDS011;52369;52.542;13.232;2022-08-01T01:33:58;6.07;;;5.22;;
65667;SDS011;52369;52.542;13.232;2022-08-01T01:36:25;7.90;;;5.40;;
65667;SDS011;52369;52.542;13.232;2022-08-01T01:38:52;8.20;;;5.80;;
65667;SDS011;52369;52.542;13.232;2022-08-01T01:41:21;7.40;;;5.75;;
65667;SDS011;52369;52.542;13.232;2022-08-01T01:43:47;8.20;;;6.03;;
65667;SDS011;52369;52.542;13.232;2022-08-01T01:46:15;7.40;;;5.47;;
65667;SDS011;52369;52.542;13.232;2022-08-01T01:48:43;9.73;;;5.93;;
65667;SDS011;52369;52.542;13.232;2022-08-01T01:51:09;10.18;;;5.88;;
65667;SDS011;52369;52.542;13.232;2022-08-01T01:53:36;7.63;;;5.45;;
65667;SDS011;52369;52.542;13.232;2022-08-01T01:56:03;8.82;;;5.88;;
65667;SDS011;52369;52.542;13.232;2022-08-01T01:58:29;8.60;;;5.57;;
65667;SDS011;52369;52.542;13.232;2022-08-01T02:00:57;8.73;;;6.20;;
65667;SDS011;52369;52.542;13.232;2022-08-01T02:03:24;9.07;;;6.18;;
65667;SDS011;52369;52.542;13.232;2022-08-01T02:05:51;8.13;;;6.05;;
65667;SDS011;52369;52.542;13.232;2022-08-01T02:08:18;8.40;;;6.25;;
65667;SDS011;52369;52.542;13.232;2022-08-01T02:10:45;8.23;;;6.20;;
65667;SDS011;52369;52.542;13.232;2022-08-01T02:13:31;7.68;;;5.95;;
65667;SDS011;52369;52.542;13.232;2022-08-01T02:15:58;9.95;;;6.30;;
65667;SDS011;52369;52.542;13.232;2022-08-01T02:18:24;11.35;;;6.55;;
65667;SDS011;52369;52.542;13.232;2022-08-01T02:20:50;9.52;;;6.57;;
65667;SDS011;52369;52.542;13.232;2022-08-01T02:23:17;9.25;;;6.10;;
65667;SDS011;52369;52.542;13.232;2022-08-01T02:28:17;8.13;;;6.38;;
65667;SDS011;52369;52.542;13.232;2022-08-01T02:30:47;8.13;;;5.90;;
65667;SDS011;52369;52.542;13.232;2022-08-01T02:33:18;8.43;;;6.32;;
65667;SDS011;52369;52.542;13.232;2022-08-01T02:35:46;9.10;;;7.07;;
65667;SDS011;52369;52.542;13.232;2022-08-01T02:38:14;9.65;;;6.90;;
65667;SDS011;52369;52.542;13.232;2022-08-01T02:40:41;10.05;;;6.68;;
65667;SDS011;52369;52.542;13.232;2022-08-01T02:43:09;9.60;;;6.93;;
65667;SDS011;52369;52.542;13.232;2022-08-01T02:45:37;8.82;;;6.53;;
65667;SDS011;52369;52.542;13.232;2022-08-01T02:48:06;9.52;;;7.25;;
65667;SDS011;52369;52.542;13.232;2022-08-01T02:50:33;10.27;;;7.45;;
65667;SDS011;52369;52.542;13.232;2022-08-01T02:53:00;10.35;;;6.97;;
65667;SDS011;52369;52.542;13.232;2022-08-01T02:55:27;10.27;;;7.18;;
65667;SDS011;52369;52.542;13.232;2022-08-01T02:57:53;10.38;;;7.07;;
65667;SDS011;52369;52.542;13.232;2022-08-01T03:00:20;10.02;;;6.82;;
65667;SDS011;52369;52.542;13.232;2022-08-01T03:02:47;10.95;;;7.15;;
65667;SDS011;52369;52.542;13.232;2022-08-01T03:05:15;9.27;;;6.82;;
65667;SDS011;52369;52.542;13.232;2022-08-01T03:07:42;9.45;;;6.32;;
65667;SDS011;52369;52.542;13.232;2022-08-01T03:10:09;10.23;;;7.10;;
65667;SDS011;52369;52.542;13.232;2022-08-01T03:12:35;10.38;;;6.90;;
65667;SDS011;52369;52.542;13.232;2022-08-01T03:15:02;9.98;;;6.85;;
65667;SDS011;52369;52.542;13.232;2022-08-01T03:17:29;9.48;;;6.80;;
65667;SDS011;52369;52.542;13.232;2022-08-01T03:19:57;9.95;;;6.30;;
65667;SDS011;52369;52.542;13.232;2022-08-01T03:22:24;9.40;;;6.60;;
65667;SDS011;52369;52.542;13.232;2022-08-01T03:24:51;8.63;;;6.20;;
65667;SDS011;52369;52.542;13.232;2022-08-01T03:27:19;8.43;;;6.13;;
65667;SDS011;52369;52.542;13.232;2022-08-01T03:29:45;8.52;;;6.07;;
65667;SDS011;52369;52.542;13.232;2022-08-01T03:32:12;9.98;;;6.18;;
65667;SDS011;52369;52.542;13.232;2022-08-01T03:34:38;8.10;;;5.85;;
65667;SDS011;52369;52.542;13.232;2022-08-01T03:37:12;9.57;;;6.00;;
65667;SDS011;52369;52.542;13.232;2022-08-01T03:39:47;7.32;;;5.85;;
65667;SDS011;52369;52.542;13.232;2022-08-01T03:42:15;8.88;;;6.15;;
65667;SDS011;52369;52.542;13.232;2022-08-01T03:44:45;8.18;;;6.07;;
65667;SDS011;52369;52.542;13.232;2022-08-01T03:47:13;9.27;;;6.35;;
65667;SDS011;52369;52.542;13.232;2022-08-01T03:49:41;9.63;;;6.65;;
65667;SDS011;52369;52.542;13.232;2022-08-01T03:52:08;9.23;;;6.07;;
65667;SDS011;52369;52.542;13.232;2022-08-01T03:54:35;9.32;;;6.30;;
65667;SDS011;52369;52.542;13.232;2022-08-01T03:57:01;9.05;;;6.47;;
65667;SDS011;52369;52.542;13.232;2022-08-01T03:59:28;10.02;;;6.65;;
65667;SDS011;52369;52.542;13.232;2022-08-01T04:01:55;9.15;;;6.63;;
65667;SDS011;52369;52.542;13.232;2022-08-01T04:04:21;10.55;;;6.97;;
65667;SDS011;52369;52.542;13.232;2022-08-01T04:06:47;11.10;;;7.00;;
65667;SDS011;52369;52.542;13.232;2022-08-01T04:09:18;11.00;;;7.32;;
65667;SDS011;52369;52.542;13.232;2022-08-01T04:11:44;11.57;;;7.25;;
65667;SDS011;52369;52.542;13.232;2022-08-01T04:14:10;12.10;;;7.68;;
65667;SDS011;52369;52.542;13.232;2022-08-01T04:16:37;11.57;;;7.30;;
65667;SDS011;52369;52.542;13.232;2022-08-01T04:19:03;10.63;;;7.38;;
65667;SDS011;52369;52.542;13.232;2022-08-01T04:21:32;14.55;;;7.95;;
65667;SDS011;52369;52.542;13.232;2022-08-01T04:23:59;10.60;;;7.40;;
65667;SDS011;52369;52.542;13.232;2022-08-01T04:26:26;12.80;;;7.82;;
65667;SDS011;52369;52.542;13.232;2022-08-01T04:28:52;12.40;;;7.63;;
65667;SDS011;52369;52.542;13.232;2022-08-01T04:31:19;13.05;;;8.02;;
65667;SDS011;52369;52.542;13.232;2022-08-01T04:33:47;14.43;;;8.13;;
65667;SDS011;52369;52.542;13.232;2022-08-01T04:36:14;14.75;;;9.02;;
65667;SDS011;52369;52.542;13.232;2022-08-01T04:38:41;13.40;;;8.55;;
65667;SDS011;52369;52.542;13.232;2022-08-01T04:41:09;13.38;;;7.57;;
65667;SDS011;52369;52.542;13.232;2022-08-01T04:43:37;11.80;;;8.15;;
65667;SDS011;52369;52.542;13.232;2022-08-01T04:46:03;14.55;;;7.85;;
65667;SDS011;52369;52.542;13.232;2022-08-01T04:48:29;11.55;;;7.75;;
65667;SDS011;52369;52.542;13.232;2022-08-01T04:50:55;14.10;;;7.88;;
65667;SDS011;52369;52.542;13.232;2022-08-01T04:53:21;11.48;;;7.90;;
65667;SDS011;52369;52.542;13.232;2022-08-01T04:55:47;12.98;;;8.25;;
65667;SDS011;52369;52.542;13.232;2022-08-01T04:58:14;12.57;;;8.20;;
65667;SDS011;52369;52.542;13.232;2022-08-01T05:00:40;12.68;;;8.20;;
65667;SDS011;52369;52.542;13.232;2022-08-01T05:03:06;11.88;;;7.70;;
65667;SDS011;52369;52.542;13.232;2022-08-01T05:05:32;12.98;;;8.18;;
65667;SDS011;52369;52.542;13.232;2022-08-01T05:07:58;12.63;;;7.93;;
65667;SDS011;52369;52.542;13.232;2022-08-01T05:10:25;12.90;;;8.02;;
65667;SDS011;52369;52.542;13.232;2022-08-01T05:12:51;11.60;;;7.82;;
65667;SDS011;52369;52.542;13.232;2022-08-01T05:15:17;11.13;;;7.38;;
65667;SDS011;52369;52.542;13.232;2022-08-01T05:17:43;11.95;;;7.43;;
65667;SDS011;52369;52.542;13.232;2022-08-01T05:20:10;13.45;;;8.57;;
65667;SDS011;52369;52.542;13.232;2022-08-01T05:22:36;12.48;;;7.50;;
65667;SDS011;52369;52.542;13.232;2022-08-01T05:25:02;12.40;;;7.93;;
65667;SDS011;52369;52.542;13.232;2022-08-01T05:27:29;12.25;;;7.72;;
65667;SDS011;52369;52.542;13.232;2022-08-01T05:29:56;12.73;;;7.22;;
65667;SDS011;52369;52.542;13.232;2022-08-01T05:32:22;11.40;;;7.60;;
65667;SDS011;52369;52.542;13.232;2022-08-01T05:34:48;12.48;;;7.70;;
65667;SDS011;52369;52.542;13.232;2022-08-01T05:37:14;11.88;;;7.93;;
65667;SDS011;52369;52.542;13.232;2022-08-01T05:39:40;10.63;;;7.22;;
65667;SDS011;52369;52.542;13.232;2022-08-01T05:42:06;12.80;;;8.10;;
65667;SDS011;52369;52.542;13.232;2022-08-01T05:44:32;10.90;;;7.70;;
65667;SDS011;52369;52.542;13.232;2022-08-01T05:46:58;11.13;;;7.55;;
65667;SDS011;52369;52.542;13.232;2022-08-01T05:49:24;11.50;;;7.25;;
65667;SDS011;52369;52.542;13.232;2022-08-01T05:51:50;13.02;;;8.50;;
65667;SDS011;52369;52.542;13.232;2022-08-01T05:54:17;12.80;;;7.35;;
65667;SDS011;52369;52.542;13.232;2022-08-01T05:56:43;11.55;;;7.32;;
65667;SDS011;52369;52.542;13.232;2022-08-01T05:59:09;10.55;;;7.20;;
65667;SDS011;52369;52.542;13.232;2022-08-01T06:01:35;11.32;;;7.63;;
65667;SDS011;52369;52.542;13.232;2022-08-01T06:04:01;12.05;;;6.72;;
65667;SDS011;52369;52.542;13.232;2022-08-01T06:06:27;13.07;;;7.68;;
65667;SDS011;52369;52.542;13.232;2022-08-01T06:08:53;11.68;;;7.72;;
65667;SDS011;52369;52.542;13.232;2022-08-01T06:11:19;11.48;;;7.15;;
65667;SDS011;52369;52.542;13.232;2022-08-01T06:13:45;9.43;;;6.18;;
65667;SDS011;52369;52.542;13.232;2022-08-01T06:16:11;9.27;;;5.55;;
65667;SDS011;52369;52.542;13.232;2022-08-01T06:18:37;9.93;;;5.93;;
65667;SDS011;52369;52.542;13.232;2022-08-01T06:21:03;8.93;;;5.90;;
65667;SDS011;52369;52.542;13.232;2022-08-01T06:23:30;9.48;;;5.32;;
65667;SDS011;52369;52.542;13.232;2022-08-01T06:25:56;10.77;;;5.78;;
65667;SDS011;52369;52.542;13.232;2022-08-01T06:28:23;8.05;;;5.40;;
65667;SDS011;52369;52.542;13.232;2022-08-01T06:30:49;16.45;;;10.68;;
65667;SDS011;52369;52.542;13.232;2022-08-01T06:33:15;9.20;;;4.93;;
65667;SDS011;52369;52.542;13.232;2022-08-01T06:35:41;7.90;;;4.70;;
65667;SDS011;52369;52.542;13.232;2022-08-01T06:38:07;6.93;;;4.82;;
65667;SDS011;52369;52.542;13.232;2022-08-01T06:40:33;6.03;;;4.40;;
65667;SDS011;52369;52.542;13.232;2022-08-01T06:42:59;6.57;;;4.35;;
65667;SDS011;52369;52.542;13.232;2022-08-01T06:45:26;6.43;;;4.70;;
65667;SDS011;52369;52.542;13.232;2022-08-01T06:47:52;6.55;;;4.50;;
65667;SDS011;52369;52.542;13.232;2022-08-01T06:50:18;5.72;;;4.13;;
65667;SDS011;52369;52.542;13.232;2022-08-01T06:52:44;7.50;;;4.30;;
65667;SDS011;52369;52.542;13.232;2022-08-01T06:55:10;6.00;;;4.20;;
65667;SDS011;52369;52.542;13.232;2022-08-01T06:57:36;5.53;;;3.92;;
65667;SDS011;52369;52.542;13.232;2022-08-01T07:00:06;7.93;;;4.05;;
65667;SDS011;52369;52.542;13.232;2022-08-01T07:02:35;5.43;;;3.95;;
65667;SDS011;52369;52.542;13.232;2022-08-01T07:05:02;5.60;;;3.90;;
65667;SDS011;52369;52.542;13.232;2022-08-01T07:07:29;8.93;;;4.72;;
65667;SDS011;52369;52.542;13.232;2022-08-01T07:09:55;7.80;;;5.10;;
65667;SDS011;52369;52.542;13.232;2022-08-01T07:12:21;8.52;;;4.43;;
65667;SDS011;52369;52.542;13.232;2022-08-01T07:14:47;5.55;;;4.18;;
65667;SDS011;52369;52.542;13.232;2022-08-01T07:17:13;6.43;;;4.50;;
65667;SDS011;52369;52.542;13.232;2022-08-01T07:19:39;5.70;;;4.05;;
65667;SDS011;52369;52.542;13.232;2022-08-01T07:22:05;8.35;;;4.75;;
65667;SDS011;52369;52.542;13.232;2022-08-01T07:24:31;6.97;;;4.47;;
65667;SDS011;52369;52.542;13.232;2022-08-01T07:26:57;7.38;;;4.30;;
65667;SDS011;52369;52.542;13.232;2022-08-01T07:29:26;6.57;;;4.15;;
65667;SDS011;52369;52.542;13.232;2022-08-01T07:31:53;6.75;;;4.72;;
65667;SDS011;52369;52.542;13.232;2022-08-01T07:34:19;7.65;;;4.70;;
65667;SDS011;52369;52.542;13.232;2022-08-01T07:36:46;7.10;;;4.35;;
65667;SDS011;52369;52.542;13.232;2022-08-01T07:39:12;5.88;;;4.30;;
65667;SDS011;52369;52.542;13.232;2022-08-01T07:41:38;7.88;;;4.90;;
65667;SDS011;52369;52.542;13.232;2022-08-01T07:44:04;7.20;;;4.85;;
65667;SDS011;52369;52.542;13.232;2022-08-01T07:46:30;8.07;;;5.60;;
65667;SDS011;52369;52.542;13.232;2022-08-01T07:48:56;9.77;;;5.68;;
65667;SDS011;52369;52.542;13.232;2022-08-01T07:51:22;9.38;;;5.13;;
65667;SDS011;52369;52.542;13.232;2022-08-01T07:53:48;9.80;;;5.47;;
65667;SDS011;52369;52.542;13.232;2022-08-01T07:56:14;9.65;;;6.03;;
65667;SDS011;52369;52.542;13.232;2022-08-01T07:58:40;8.13;;;4.88;;
65667;SDS011;52369;52.542;13.232;2022-08-01T08:01:06;10.32;;;5.78;;
65667;SDS011;52369;52.542;13.232;2022-08-01T08:03:32;7.32;;;4.40;;
65667;SDS011;52369;52.542;13.232;2022-08-01T08:05:58;6.45;;;4.40;;
65667;SDS011;52369;52.542;13.232;2022-08-01T08:08:24;8.55;;;4.63;;
65667;SDS011;52369;52.542;13.232;2022-08-01T08:10:50;7.40;;;4.45;;
65667;SDS011;52369;52.542;13.232;2022-08-01T08:13:16;7.75;;;4.78;;
65667;SDS011;52369;52.542;13.232;2022-08-01T08:15:42;9.38;;;4.88;;
65667;SDS011;52369;52.542;13.232;2022-08-01T08:18:08;8.65;;;5.05;;
65667;SDS011;52369;52.542;13.232;2022-08-01T08:20:34;6.68;;;4.47;;
65667;SDS011;52369;52.542;13.232;2022-08-01T08:23:00;7.43;;;4.50;;
65667;SDS011;52369;52.542;13.232;2022-08-01T08:25:26;11.48;;;6.55;;
65667;SDS011;52369;52.542;13.232;2022-08-01T08:27:53;6.25;;;4.40;;
65667;SDS011;52369;52.542;13.232;2022-08-01T08:30:19;9.52;;;4.78;;
65667;SDS011;52369;52.542;13.232;2022-08-01T08:32:45;8.48;;;4.80;;
65667;SDS011;52369;52.542;13.232;2022-08-01T08:35:12;5.50;;;3.25;;
65667;SDS011;52369;52.542;13.232;2022-08-01T08:37:38;5.53;;;3.50;;
65667;SDS011;52369;52.542;13.232;2022-08-01T08:40:04;3.95;;;3.10;;
65667;SDS011;52369;52.542;13.232;2022-08-01T08:42:30;3.88;;;2.67;;
65667;SDS011;52369;52.542;13.232;2022-08-01T08:44:56;3.05;;;2.28;;
65667;SDS011;52369;52.542;13.232;2022-08-01T08:47:23;4.22;;;2.90;;
65667;SDS011;52369;52.542;13.232;2022-08-01T08:49:50;3.17;;;2.58;;
65667;SDS011;52369;52.542;13.232;2022-08-01T08:52:20;2.85;;;1.90;;
65667;SDS011;52369;52.542;13.232;2022-08-01T08:54:47;3.55;;;1.60;;
65667;SDS011;52369;52.542;13.232;2022-08-01T08:57:14;3.25;;;2.42;;
65667;SDS011;52369;52.542;13.232;2022-08-01T08:59:40;3.03;;;2.13;;
65667;SDS011;52369;52.542;13.232;2022-08-01T09:02:08;2.55;;;2.20;;
65667;SDS011;52369;52.542;13.232;2022-08-01T09:04:35;3.60;;;2.33;;
65667;SDS011;52369;52.542;13.232;2022-08-01T09:07:03;4.80;;;3.50;;
65667;SDS011;52369;52.542;13.232;2022-08-01T09:09:30;3.90;;;2.90;;
65667;SDS011;52369;52.542;13.232;2022-08-01T09:11:56;6.55;;;3.75;;
65667;SDS011;52369;52.542;13.232;2022-08-01T09:14:22;5.70;;;2.70;;
65667;SDS011;52369;52.542;13.232;2022-08-01T09:17:03;4.57;;;2.80;;
65667;SDS011;52369;52.542;13.232;2022-08-01T09:19:41;5.03;;;3.10;;
65667;SDS011;52369;52.542;13.232;2022-08-01T09:22:09;3.88;;;2.72;;
65667;SDS011;52369;52.542;13.232;2022-08-01T09:24:35;3.25;;;2.88;;
65667;SDS011;52369;52.542;13.232;2022-08-01T09:27:02;3.13;;;2.75;;
65667;SDS011;52369;52.542;13.232;2022-08-01T09:29:40;3.88;;;2.92;;
65667;SDS011;52369;52.542;13.232;2022-08-01T09:32:06;3.63;;;2.88;;
65667;SDS011;52369;52.542;13.232;2022-08-01T09:34:32;3.50;;;2.90;;
65667;SDS011;52369;52.542;13.232;2022-08-01T09:36:59;3.03;;;2.72;;
65667;SDS011;52369;52.542;13.232;2022-08-01T09:39:30;4.20;;;3.20;;
65667;SDS011;52369;52.542;13.232;2022-08-01T09:42:01;4.68;;;3.13;;
65667;SDS011;52369;52.542;13.232;2022-08-01T09:44:41;4.03;;;2.72;;
65667;SDS011;52369;52.542;13.232;2022-08-01T09:47:07;4.20;;;3.22;;
65667;SDS011;52369;52.542;13.232;2022-08-01T09:49:34;9.20;;;3.63;;
65667;SDS011;52369;52.542;13.232;2022-08-01T09:52:19;3.83;;;2.78;;
65667;SDS011;52369;52.542;13.232;2022-08-01T09:54:53;5.45;;;3.20;;
65667;SDS011;52369;52.542;13.232;2022-08-01T09:57:20;4.95;;;3.17;;
65667;SDS011;52369;52.542;13.232;2022-08-01T09:59:47;4.82;;;2.80;;
65667;SDS011;52369;52.542;13.232;2022-08-01T10:02:36;3.15;;;2.50;;
65667;SDS011;52369;52.542;13.232;2022-08-01T10:05:03;4.43;;;3.00;;
65667;SDS011;52369;52.542;13.232;2022-08-01T10:07:29;7.10;;;4.20;;
65667;SDS011;52369;52.542;13.232;2022-08-01T10:09:56;4.00;;;2.83;;
65667;SDS011;52369;52.542;13.232;2022-08-01T10:12:33;4.40;;;3.08;;
65667;SDS011;52369;52.542;13.232;2022-08-01T10:14:59;6.80;;;2.70;;
65667;SDS011;52369;52.542;13.232;2022-08-01T10:17:26;3.17;;;2.38;;
65667;SDS011;52369;52.542;13.232;2022-08-01T10:19:52;3.42;;;2.08;;
65667;SDS011;52369;52.542;13.232;2022-08-01T10:22:19;5.05;;;2.63;;
65667;SDS011;52369;52.542;13.232;2022-08-01T10:24:48;5.22;;;3.10;;
65667;SDS011;52369;52.542;13.232;2022-08-01T10:27:16;4.30;;;2.55;;
65667;SDS011;52369;52.542;13.232;2022-08-01T10:29:47;3.42;;;2.67;;
65667;SDS011;52369;52.542;13.232;2022-08-01T10:32:15;4.10;;;2.72;;
65667;SDS011;52369;52.542;13.232;2022-08-01T10:34:41;8.77;;;3.08;;
65667;SDS011;52369;52.542;13.232;2022-08-01T10:37:07;4.45;;;2.70;;
65667;SDS011;52369;52.542;13.232;2022-08-01T10:39:35;4.28;;;2.50;;
65667;SDS011;52369;52.542;13.232;2022-08-01T10:42:01;2.70;;;2.30;;
65667;SDS011;52369;52.542;13.232;2022-08-01T10:44:28;2.38;;;2.15;;
65667;SDS011;52369;52.542;13.232;2022-08-01T10:46:59;5.53;;;2.08;;
65667;SDS011;52369;52.542;13.232;2022-08-01T10:49:29;3.00;;;1.67;;
65667;SDS011;52369;52.542;13.232;2022-08-01T10:51:56;3.28;;;1.90;;
65667;SDS011;52369;52.542;13.232;2022-08-01T10:54:25;6.45;;;3.67;;
65667;SDS011;52369;52.542;13.232;2022-08-01T10:56:51;3.55;;;2.17;;
65667;SDS011;52369;52.542;13.232;2022-08-01T10:59:21;3.25;;;2.30;;
65667;SDS011;52369;52.542;13.232;2022-08-01T11:01:57;4.25;;;2.10;;
65667;SDS011;52369;52.542;13.232;2022-08-01T11:07:03;4.63;;;2.63;;
65667;SDS011;52369;52.542;13.232;2022-08-01T11:09:30;2.80;;;2.13;;
65667;SDS011;52369;52.542;13.232;2022-08-01T11:14:23;2.50;;;1.52;;
65667;SDS011;52369;52.542;13.232;2022-08-01T11:16:49;2.47;;;1.92;;
65667;SDS011;52369;52.542;13.232;2022-08-01T11:19:15;2.10;;;1.90;;
65667;SDS011;52369;52.542;13.232;2022-08-01T11:30:27;2.47;;;2.20;;
65667;SDS011;52369;52.542;13.232;2022-08-01T11:35:13;2.30;;;2.10;;
65667;SDS011;52369;52.542;13.232;2022-08-01T11:37:39;1.90;;;1.80;;
65667;SDS011;52369;52.542;13.232;2022-08-01T11:42:40;3.47;;;2.20;;
65667;SDS011;52369;52.542;13.232;2022-08-01T11:45:06;2.28;;;1.70;;
65667;SDS011;52369;52.542;13.232;2022-08-01T11:47:43;7.90;;;4.30;;
65667;SDS011;52369;52.542;13.232;2022-08-01T11:53:12;3.65;;;2.13;;
65667;SDS011;52369;52.542;13.232;2022-08-01T11:55:51;2.63;;;1.90;;
65667;SDS011;52369;52.542;13.232;2022-08-01T11:58:21;4.18;;;2.17;;
65667;SDS011;52369;52.542;13.232;2022-08-01T12:00:51;2.65;;;2.13;;
65667;SDS011;52369;52.542;13.232;2022-08-01T12:03:23;4.35;;;2.22;;
65667;SDS011;52369;52.542;13.232;2022-08-01T12:05:49;2.92;;;2.47;;
65667;SDS011;52369;52.542;13.232;2022-08-01T12:08:23;3.15;;;2.22;;
65667;SDS011;52369;52.542;13.232;2022-08-01T12:10:50;4.75;;;2.50;;
65667;SDS011;52369;52.542;13.232;2022-08-01T12:13:16;1.70;;;1.52;;
65667;SDS011;52369;52.542;13.232;2022-08-01T12:15:45;1.80;;;1.55;;
65667;SDS011;52369;52.542;13.232;2022-08-01T12:18:11;3.33;;;1.73;;
65667;SDS011;52369;52.542;13.232;2022-08-01T12:20:38;3.00;;;1.90;;
65667;SDS011;52369;52.542;13.232;2022-08-01T12:23:05;2.50;;;1.95;;
65667;SDS011;52369;52.542;13.232;2022-08-01T12:25:32;3.78;;;1.83;;
65667;SDS011;52369;52.542;13.232;2022-08-01T12:27:59;2.85;;;2.08;;
65667;SDS011;52369;52.542;13.232;2022-08-01T12:30:25;3.03;;;2.00;;
65667;SDS011;52369;52.542;13.232;2022-08-01T12:32:54;2.17;;;1.98;;
65667;SDS011;52369;52.542;13.232;2022-08-01T12:35:21;4.38;;;2.70;;
65667;SDS011;52369;52.542;13.232;2022-08-01T12:37:52;2.53;;;2.10;;
65667;SDS011;52369;52.542;13.232;2022-08-01T12:40:28;1.98;;;1.80;;
65667;SDS011;52369;52.542;13.232;2022-08-01T12:42:56;2.08;;;1.70;;
65667;SDS011;52369;52.542;13.232;2022-08-01T12:45:24;2.75;;;1.90;;
65667;SDS011;52369;52.542;13.232;2022-08-01T12:47:51;3.10;;;2.58;;
65667;SDS011;52369;52.542;13.232;2022-08-01T12:50:21;3.83;;;2.40;;
65667;SDS011;52369;52.542;13.232;2022-08-01T12:52:48;2.28;;;2.08;;
65667;SDS011;52369;52.542;13.232;2022-08-01T12:57:42;1.90;;;1.80;;
65667;SDS011;52369;52.542;13.232;2022-08-01T13:00:19;2.92;;;2.00;;
65667;SDS011;52369;52.542;13.232;2022-08-01T13:02:46;4.00;;;2.30;;
65667;SDS011;52369;52.542;13.232;2022-08-01T13:05:13;3.20;;;2.15;;
65667;SDS011;52369;52.542;13.232;2022-08-01T13:07:42;3.92;;;2.45;;
65667;SDS011;52369;52.542;13.232;2022-08-01T13:10:09;2.40;;;1.63;;
65667;SDS011;52369;52.542;13.232;2022-08-01T13:12:35;2.78;;;1.67;;
65667;SDS011;52369;52.542;13.232;2022-08-01T13:15:16;3.08;;;2.13;;
65667;SDS011;52369;52.542;13.232;2022-08-01T13:17:42;4.90;;;1.58;;
65667;SDS011;52369;52.542;13.232;2022-08-01T13:20:09;2.53;;;1.60;;
65667;SDS011;52369;52.542;13.232;2022-08-01T13:22:35;2.17;;;1.73;;
65667;SDS011;52369;52.542;13.232;2022-08-01T13:25:14;2.10;;;1.40;;
65667;SDS011;52369;52.542;13.232;2022-08-01T13:27:41;2.15;;;1.30;;
65667;SDS011;52369;52.542;13.232;2022-08-01T13:30:15;3.10;;;2.22;;
65667;SDS011;52369;52.542;13.232;2022-08-01T13:32:41;2.13;;;1.20;;
65667;SDS011;52369;52.542;13.232;2022-08-01T13:35:09;1.50;;;1.40;;
65667;SDS011;52369;52.542;13.232;2022-08-01T13:37:37;1.60;;;1.30;;
65667;SDS011;52369;52.542;13.232;2022-08-01T13:40:03;2.58;;;1.63;;
65667;SDS011;52369;52.542;13.232;2022-08-01T13:42:29;2.95;;;1.67;;
65667;SDS011;52369;52.542;13.232;2022-08-01T13:44:55;4.32;;;1.30;;
65667;SDS011;52369;52.542;13.232;2022-08-01T13:47:21;1.50;;;1.00;;
65667;SDS011;52369;52.542;13.232;2022-08-01T13:49:47;1.05;;;0.95;;
65667;SDS011;52369;52.542;13.232;2022-08-01T13:52:13;2.40;;;1.27;;
65667;SDS011;52369;52.542;13.232;2022-08-01T13:54:40;1.10;;;1.05;;
65667;SDS011;52369;52.542;13.232;2022-08-01T13:57:06;2.92;;;1.70;;
65667;SDS011;52369;52.542;13.232;2022-08-01T13:59:32;2.15;;;1.30;;
65667;SDS011;52369;52.542;13.232;2022-08-01T14:01:58;1.20;;;1.00;;
65667;SDS011;52369;52.542;13.232;2022-08-01T14:04:25;1.35;;;1.10;;
65667;SDS011;52369;52.542;13.232;2022-08-01T14:06:51;1.95;;;1.17;;
65667;SDS011;52369;52.542;13.232;2022-08-01T14:09:17;1.83;;;1.55;;
65667;SDS011;52369;52.542;13.232;2022-08-01T14:11:44;1.20;;;1.10;;
65667;SDS011;52369;52.542;13.232;2022-08-01T14:14:10;1.48;;;0.82;;
65667;SDS011;52369;52.542;13.232;2022-08-01T14:16:36;1.30;;;1.00;;
65667;SDS011;52369;52.542;13.232;2022-08-01T14:19:02;1.98;;;1.27;;
65667;SDS011;52369;52.542;13.232;2022-08-01T14:21:28;1.15;;;1.05;;
65667;SDS011;52369;52.542;13.232;2022-08-01T14:23:54;3.17;;;1.35;;
65667;SDS011;52369;52.542;13.232;2022-08-01T14:26:20;2.40;;;1.00;;
65667;SDS011;52369;52.542;13.232;2022-08-01T14:28:46;0.90;;;0.88;;
65667;SDS011;52369;52.542;13.232;2022-08-01T14:31:12;2.03;;;0.80;;
65667;SDS011;52369;52.542;13.232;2022-08-01T14:33:39;1.40;;;0.80;;
65667;SDS011;52369;52.542;13.232;2022-08-01T14:36:05;2.08;;;0.90;;
65667;SDS011;52369;52.542;13.232;2022-08-01T14:38:31;1.55;;;1.08;;
65667;SDS011;52369;52.542;13.232;2022-08-01T14:40:57;2.55;;;1.48;;
65667;SDS011;52369;52.542;13.232;2022-08-01T14:43:24;1.40;;;1.30;;
65667;SDS011;52369;52.542;13.232;2022-08-01T14:45:51;3.13;;;1.63;;
65667;SDS011;52369;52.542;13.232;2022-08-01T14:48:19;2.63;;;2.13;;
65667;SDS011;52369;52.542;13.232;2022-08-01T14:50:45;3.33;;;1.58;;
65667;SDS011;52369;52.542;13.232;2022-08-01T14:53:11;1.98;;;1.27;;
65667;SDS011;52369;52.542;13.232;2022-08-01T14:55:37;3.63;;;1.35;;
65667;SDS011;52369;52.542;13.232;2022-08-01T14:58:04;1.98;;;1.40;;
65667;SDS011;52369;52.542;13.232;2022-08-01T15:00:30;2.03;;;1.23;;
65667;SDS011;52369;52.542;13.232;2022-08-01T15:02:56;3.58;;;2.30;;
65667;SDS011;52369;52.542;13.232;2022-08-01T15:05:22;1.90;;;1.50;;
65667;SDS011;52369;52.542;13.232;2022-08-01T15:07:48;2.15;;;1.20;;
65667;SDS011;52369;52.542;13.232;2022-08-01T15:10:14;2.05;;;1.20;;
65667;SDS011;52369;52.542;13.232;2022-08-01T15:12:41;1.38;;;1.10;;